This is the latest recevied weather packets stored in our database for station/object F4AMY-13. If no packets are shown the sender has not sent any weather packets the latest 10 day(s).
| Time | Temp. | Humidity | Pressure | Rain* | Wind** | Luminosity | Snow |
|---|---|---|---|---|---|---|---|
| 1777113723 | 21.67° C | 44% | 1015.3 hPa | 0 mm | 183.29 m/s, ° | 410 W/m² | - |
| 1777113422 | 21.11° C | 43% | 1015.1 hPa | 0 mm | 102.37 m/s, ° | 229 W/m² | - |
| 1777113122 | 21.11° C | 41% | 1015.2 hPa | 0 mm | 169.43 m/s, ° | 379 W/m² | - |
| 1777112822 | 21.11° C | 40% | 1015.3 hPa | 0 mm | 42.47 m/s, ° | 95 W/m² | - |
| 1777112522 | 20.56° C | 44% | 1015.5 hPa | 0 mm | 78.68 m/s, ° | 176 W/m² | - |
| 1777112222 | 20.56° C | 43% | 1015.5 hPa | 0 mm | 39.79 m/s, ° | 89 W/m² | - |
| 1777111922 | 20.56° C | 43% | 1015.5 hPa | 0 mm | 24.59 m/s, ° | 55 W/m² | - |
| 1777111622 | 20° C | 43% | 1015.5 hPa | 0 mm | 21.01 m/s, ° | 47 W/m² | - |
| 1777111322 | 20° C | 47% | 1015.4 hPa | 0 mm | 21.9 m/s, ° | 49 W/m² | - |
| 1777111022 | 19.44° C | 54% | 1015.6 hPa | 0 mm | 20.56 m/s, ° | 46 W/m² | - |
| 1777110722 | 19.44° C | 58% | 1015.8 hPa | 0 mm | 19.67 m/s, ° | 44 W/m² | - |
| 1777110422 | 19.44° C | 57% | 1015.5 hPa | 0 mm | 21.01 m/s, ° | 47 W/m² | - |
| 1777110122 | 18.89° C | 58% | 1015.8 hPa | 0 mm | 18.78 m/s, ° | 42 W/m² | - |
| 1777109822 | 18.89° C | 57% | 1015.6 hPa | 0 mm | 18.78 m/s, ° | 42 W/m² | - |
| 1777109522 | 18.89° C | 57% | 1015.6 hPa | 0 mm | 18.78 m/s, ° | 42 W/m² | - |
| 1777109221 | 18.89° C | 55% | 1015.5 hPa | 0 mm | 18.33 m/s, ° | 41 W/m² | - |
| 1777108921 | 18.33° C | 54% | 1015.9 hPa | 0 mm | 17.43 m/s, ° | 39 W/m² | - |
| 1777108621 | 18.33° C | 51% | 1015.8 hPa | 0 mm | 16.99 m/s, ° | 38 W/m² | - |
| 1777108321 | 17.78° C | 51% | 1015.7 hPa | 0 mm | 17.43 m/s, ° | 39 W/m² | - |
| 1777108021 | 17.78° C | 50% | 1016.2 hPa | 0 mm | 16.09 m/s, ° | 36 W/m² | - |
| 1777107721 | 17.22° C | 52% | 1015.8 hPa | 0 mm | 15.65 m/s, ° | 35 W/m² | - |
| 1777107421 | 17.22° C | 47% | 1016 hPa | 0 mm | 23.25 m/s, ° | 52 W/m² | - |
| 1777107121 | 16.67° C | 42% | 1015.9 hPa | 0 mm | 14.75 m/s, ° | 33 W/m² | - |
| 1777106821 | 16.67° C | 56% | 1015.7 hPa | 0 mm | 14.75 m/s, ° | 33 W/m² | - |
| 1777106521 | 16.67° C | 56% | 1015.7 hPa | 0 mm | 17.88 m/s, ° | 40 W/m² | - |
* Rain latest hour (hover to see other rain measurements)
** Current wind speed in m/s (hover to see current wind gust speed)